Accueil
METAR-TAF:

METAR-TAF

Aéroports :

Ashe County Airport

West Jefferson, Caroline du Nord, États-Unis

latitude: 36-26N, longitude: 081-25W, altitude: 969 m

Observation

Le bulletin a été fait il y a 25 minutes, à 21:15 UTC
Vent 8 kt de ouest
Température 0°C
Humidité 86%
Pression 1012 hPa
Visibilité: 4.0 km
Nuages épars à une hauteur de 1900 ft
Nuages fragmentés à une hauteur de 2600 ft
Ciel couvert à une hauteur de 4700 ft
neige faible

METAR: KGEV 282115Z AUTO 26008KT 2 1/2SM -SN SCT019 BKN026 OVC047 00/M02 A2988 RMK AO2 T10051025

Heure: 16:40 (21:40 UTC)


TAF: absent

Observations et prévisions météorologiques de plus de 4000 aéroports (messages METAR et TAF).

Les stations disponibles sont représentées par des disques jaunes et rouges sur la carte.

Passer la souris dessus pour voir le nom de la station.

Cliquer dessus pour voir les observations et prévisions météorologiques.

Pour changer de carte: cliquez sur les boutons verts avec une croix noire pour zoomer, sur le bouton vert avec un tiret pour effectuer un zoom arrière, ou sur les flèches vertes pour les cartes adjacentes.


METAR-TAF: